Time;durP1;ratioP1;P1;durP2;ratioP2;P2;SDS_P1;SDS_P2;PMS_P1;PMS_P2;Temp;Humidity;BMP_temperature;BMP_pressure;BME280_temperature;BME280_humidity;BME280_pressure;Samples;Min_cycle;Max_cycle;Signal;HPM_P1;HPM_P2
2022/09/28 00:01:50;;;;;;;0.10;0.10;;;;;;;7.84;100.00;99725.53;10408355;28;20437;-77
2022/09/28 00:06:52;;;;;;;0.00;0.00;;;;;;;7.81;100.00;99712.63;10406266;28;20048;-78
2022/09/28 00:11:55;;;;;;;0.50;0.28;;;;;;;7.89;100.00;99716.19;10403368;28;20136;-77
2022/09/28 00:16:56;;;;;;;0.32;0.32;;;;;;;7.70;100.00;99715.00;10409764;28;20063;-78
2022/09/28 00:21:58;;;;;;;0.70;0.60;;;;;;;7.71;100.00;99709.03;10392334;28;20129;-77
2022/09/28 00:27:01;;;;;;;0.30;0.30;;;;;;;7.68;100.00;99705.56;10418578;28;20060;-78
2022/09/28 00:32:09;;;;;;;0.95;0.52;;;;;;;7.67;100.00;99698.69;10374524;28;1028474;-77
2022/09/28 00:37:12;;;;;;;0.35;0.10;;;;;;;7.54;100.00;99689.91;10410027;28;20500;-78
2022/09/28 00:42:16;;;;;;;0.40;0.32;;;;;;;7.43;100.00;99705.09;10410212;28;20574;-78
2022/09/28 00:47:41;;;;;;;1.70;1.02;;;;;;;7.50;100.00;99704.38;10401327;28;20053;-79
2022/09/28 00:53:05;;;;;;;0.75;0.70;;;;;;;7.46;100.00;99694.91;10399069;28;20037;-78
2022/09/28 00:58:11;;;;;;;1.00;0.93;;;;;;;7.46;100.00;99710.28;10392377;28;20046;-78
2022/09/28 01:03:13;;;;;;;0.20;0.20;;;;;;;7.56;100.00;99701.91;10408827;28;20128;-79
2022/09/28 01:08:16;;;;;;;1.35;0.93;;;;;;;7.84;100.00;99694.75;10392401;28;20051;-79
2022/09/28 01:13:19;;;;;;;1.00;0.65;;;;;;;7.75;100.00;99681.75;10421969;28;20041;-78
2022/09/28 01:18:33;;;;;;;0.80;0.75;;;;;;;7.97;100.00;99671.88;10418536;28;20432;-78
2022/09/28 01:24:01;;;;;;;0.93;0.73;;;;;;;7.77;100.00;99669.84;10392234;28;20049;-79
2022/09/28 01:29:18;;;;;;;0.40;0.40;;;;;;;7.93;100.00;99673.50;10391539;28;20050;-78
2022/09/28 01:34:27;;;;;;;0.30;0.30;;;;;;;7.80;100.00;99682.69;10408081;28;20554;-78
2022/09/28 01:39:34;;;;;;;0.80;0.77;;;;;;;8.09;100.00;99682.31;10408400;28;20045;-78
2022/09/28 01:44:41;;;;;;;0.63;0.60;;;;;;;7.94;100.00;99673.53;10393067;28;20413;-78
2022/09/28 01:49:56;;;;;;;0.75;0.55;;;;;;;8.04;100.00;99678.81;10398120;28;20049;-78
2022/09/28 01:55:30;;;;;;;0.98;0.65;;;;;;;8.10;100.00;99673.78;10398549;28;20080;-79
2022/09/28 02:00:34;;;;;;;1.50;0.98;;;;;;;8.09;100.00;99672.94;10383464;28;20041;-79
2022/09/28 02:05:39;;;;;;;0.63;0.50;;;;;;;8.18;100.00;99667.06;10414698;28;20053;-79
2022/09/28 02:10:47;;;;;;;0.93;0.88;;;;;;;8.17;100.00;99664.50;10398241;28;20080;-78
2022/09/28 02:16:02;;;;;;;1.20;1.08;;;;;;;8.21;100.00;99659.44;10400609;28;20041;-78
2022/09/28 02:21:13;;;;;;;0.98;0.55;;;;;;;8.23;100.00;99657.75;10415505;28;20034;-79
2022/09/28 02:26:20;;;;;;;1.23;1.13;;;;;;;8.23;100.00;99662.88;10418148;28;20489;-79
2022/09/28 02:31:22;;;;;;;4.13;1.27;;;;;;;8.32;100.00;99659.59;10420563;28;20447;-78
2022/09/28 02:36:26;;;;;;;3.55;0.80;;;;;;;8.28;100.00;99656.97;10417100;28;20080;-78
2022/09/28 02:41:46;;;;;;;1.77;1.42;;;;;;;8.18;100.00;99659.38;10413292;28;20095;-79
2022/09/28 02:47:09;;;;;;;1.25;0.52;;;;;;;8.14;100.00;99661.88;10404962;28;20100;-79
2022/09/28 02:52:14;;;;;;;1.85;1.42;;;;;;;8.06;100.00;99666.88;10395847;28;20045;-79
2022/09/28 02:57:36;;;;;;;1.52;1.05;;;;;;;8.13;100.00;99658.47;10409813;28;20503;-79
2022/09/28 03:03:01;;;;;;;5.53;1.15;;;;;;;8.08;100.00;99662.63;10401397;28;20405;-78
2022/09/28 03:08:30;;;;;;;2.40;1.48;;;;;;;8.04;100.00;99666.00;10385527;28;20049;-79
2022/09/28 03:13:34;;;;;;;4.57;1.15;;;;;;;8.07;100.00;99669.47;10401179;28;20394;-79
2022/09/28 03:18:35;;;;;;;0.70;0.63;;;;;;;8.00;100.00;99666.81;10411915;28;20045;-79
2022/09/28 03:23:39;;;;;;;1.23;0.98;;;;;;;8.03;100.00;99669.41;10396127;28;20045;-79
2022/09/28 03:28:40;;;;;;;0.77;0.63;;;;;;;8.02;100.00;99660.84;10411274;28;20053;-79
2022/09/28 03:33:47;;;;;;;0.88;0.85;;;;;;;8.06;100.00;99664.31;10379084;28;20048;-79
2022/09/28 03:38:53;;;;;;;1.55;1.10;;;;;;;8.11;100.00;99662.69;10410704;28;20045;-79
2022/09/28 03:43:57;;;;;;;2.55;1.00;;;;;;;8.09;100.00;99670.38;10412791;28;20096;-79
2022/09/28 03:49:01;;;;;;;0.98;0.70;;;;;;;8.07;100.00;99672.03;10410173;28;20053;-79
2022/09/28 03:54:03;;;;;;;0.57;0.57;;;;;;;8.09;100.00;99677.19;10411179;28;20061;-79
2022/09/28 03:59:04;;;;;;;1.63;0.88;;;;;;;8.08;100.00;99675.44;10410212;28;20136;-79
2022/09/28 04:04:06;;;;;;;0.88;0.82;;;;;;;8.13;100.00;99678.97;10420163;28;20042;-79
2022/09/28 04:09:10;;;;;;;2.85;1.10;;;;;;;8.22;100.00;99678.25;10424012;28;20135;-80
2022/09/28 04:14:12;;;;;;;2.10;0.47;;;;;;;8.22;100.00;99678.25;10428543;28;20408;-78
2022/09/28 04:19:14;;;;;;;0.50;0.30;;;;;;;8.23;100.00;99662.88;10413074;28;20120;-78
2022/09/28 04:24:23;;;;;;;1.48;0.98;;;;;;;8.21;100.00;99677.41;10420190;28;20076;-79
2022/09/28 04:29:25;;;;;;;1.25;0.95;;;;;;;8.23;100.00;99679.97;10410533;28;20103;-79
2022/09/28 04:34:32;;;;;;;1.90;0.60;;;;;;;8.22;100.00;99673.13;10423837;28;20065;-80
2022/09/28 04:39:39;;;;;;;1.02;0.20;;;;;;;7.95;100.00;99671.84;10410214;28;20037;-79
2022/09/28 04:44:45;;;;;;;0.45;0.40;;;;;;;8.06;100.00;99677.16;10423938;28;20049;-79
2022/09/28 04:49:47;;;;;;;1.15;0.52;;;;;;;8.00;100.00;99680.47;10409388;28;20447;-79
2022/09/28 04:54:53;;;;;;;0.17;0.10;;;;;;;8.21;100.00;99684.22;10424028;28;20115;-80
2022/09/28 04:59:55;;;;;;;1.75;0.35;;;;;;;8.23;100.00;99683.41;10409839;28;20049;-79
2022/09/28 05:04:57;;;;;;;3.70;1.63;;;;;;;8.15;100.00;99684.13;10393186;28;20042;-79
2022/09/28 05:10:30;;;;;;;1.25;1.15;;;;;;;7.99;100.00;99670.19;10410596;28;20030;-79
2022/09/28 05:15:33;;;;;;;0.45;0.40;;;;;;;7.78;100.00;99667.28;10409927;28;20500;-79
2022/09/28 05:20:39;;;;;;;1.00;0.65;;;;;;;7.68;100.00;99675.66;10410904;28;20416;-79
2022/09/28 05:25:44;;;;;;;0.95;0.85;;;;;;;7.20;100.00;99687.56;10400715;28;20053;-79
2022/09/28 05:30:51;;;;;;;0.40;0.20;;;;;;;7.42;100.00;99693.09;10415997;28;20049;-79
2022/09/28 05:36:02;;;;;;;2.70;1.38;;;;;;;7.40;100.00;99690.50;10400683;28;20076;-78
2022/09/28 05:41:04;;;;;;;3.00;1.75;;;;;;;7.40;100.00;99684.53;10398868;28;20088;-79
2022/09/28 05:46:07;;;;;;;1.52;1.23;;;;;;;7.05;100.00;99697.50;10415757;28;20048;-78
2022/09/28 05:51:12;;;;;;;2.80;1.15;;;;;;;7.26;100.00;99707.31;10415018;28;20393;-79
2022/09/28 05:56:13;;;;;;;2.70;1.85;;;;;;;7.41;100.00;99717.03;10416237;28;20056;-79
2022/09/28 06:01:17;;;;;;;2.08;1.05;;;;;;;7.24;100.00;99725.22;10414637;28;20520;-79
2022/09/28 06:06:19;;;;;;;2.25;1.40;;;;;;;7.53;100.00;99732.63;10397209;28;20049;-79
2022/09/28 06:11:25;;;;;;;2.35;1.63;;;;;;;7.44;100.00;99738.44;10395318;28;20239;-78
2022/09/28 06:16:29;;;;;;;3.33;1.58;;;;;;;7.44;100.00;99742.69;10414271;28;20115;-79
2022/09/28 06:21:31;;;;;;;6.38;2.20;;;;;;;7.26;100.00;99759.41;10405285;28;20053;-79
2022/09/28 06:26:33;;;;;;;2.83;2.20;;;;;;;7.24;100.00;99771.34;10410531;28;20051;-78
2022/09/28 06:31:35;;;;;;;0.65;0.55;;;;;;;7.25;100.00;99860.19;10397419;28;20050;-78
2022/09/28 06:36:37;;;;;;;0.50;0.50;;;;;;;7.52;100.00;99871.88;10421662;28;20037;-78
2022/09/28 06:41:40;;;;;;;1.25;0.95;;;;;;;7.87;100.00;99874.28;10404320;28;20272;-78
2022/09/28 06:46:48;;;;;;;0.43;0.38;;;;;;;8.09;100.00;99861.88;10406603;28;20436;-78
2022/09/28 06:51:50;;;;;;;0.55;0.30;;;;;;;8.25;100.00;99848.53;10413310;28;20077;-78
2022/09/28 06:56:54;;;;;;;0.10;0.10;;;;;;;8.42;100.00;99840.25;10413696;28;20075;-78
2022/09/28 07:01:56;;;;;;;0.50;0.50;;;;;;;8.42;100.00;99835.97;10412440;28;20045;-79
2022/09/28 07:07:21;;;;;;;10.25;0.93;;;;;;;8.49;100.00;99831.88;10410450;28;20544;-79
2022/09/28 07:12:34;;;;;;;0.95;0.50;;;;;;;8.59;100.00;99825.19;10415668;28;20066;-79
2022/09/28 07:17:45;;;;;;;1.00;0.77;;;;;;;8.87;100.00;99803.38;10412488;28;20054;-79
2022/09/28 07:23:05;;;;;;;0.68;0.55;;;;;;;9.31;100.00;99799.69;10408269;28;20052;-79
2022/09/28 07:28:40;;;;;;;0.30;0.30;;;;;;;10.04;100.00;99741.34;10410390;28;20053;-79
2022/09/28 07:33:52;;;;;;;0.80;0.77;;;;;;;10.44;100.00;99687.66;10404517;28;20554;-79
2022/09/28 07:39:02;;;;;;;0.85;0.47;;;;;;;10.69;100.00;99667.19;10407350;28;20144;-79
2022/09/28 07:44:07;;;;;;;0.10;0.10;;;;;;;10.78;100.00;99659.53;10408511;28;20034;-79
2022/09/28 07:49:14;;;;;;;0.10;0.10;;;;;;;11.51;100.00;99651.16;10389405;28;20049;-79
2022/09/28 07:54:50;;;;;;;2.38;0.65;;;;;;;11.59;100.00;99639.16;10397545;28;20042;-79
2022/09/28 08:00:08;;;;;;;0.45;0.28;;;;;;;11.80;100.00;99642.63;10398398;28;20038;-79
2022/09/28 08:05:18;;;;;;;0.68;0.60;;;;;;;11.84;100.00;99641.75;10413871;28;20120;-79
2022/09/28 08:10:21;;;;;;;0.20;0.20;;;;;;;11.18;100.00;99652.81;10411854;28;20099;-79
2022/09/28 08:15:50;;;;;;;1.25;0.95;;;;;;;11.01;100.00;99676.81;10412022;28;20516;-79
2022/09/28 08:26:27;;;;;;;0.35;0.32;;;;;;;10.69;100.00;99703.25;10401306;28;20400;-78
2022/09/28 08:31:30;;;;;;;2.20;1.15;;;;;;;11.77;100.00;99705.41;10396510;28;20405;-79
2022/09/28 08:36:52;;;;;;;0.32;0.32;;;;;;;11.73;100.00;99698.53;10420042;28;20053;-79
2022/09/28 08:42:19;;;;;;;1.02;0.52;;;;;;;11.56;100.00;99706.22;10420308;28;20046;-79
2022/09/28 08:54:02;;;;;;;0.82;0.35;;;;;;;11.65;100.00;99695.94;10423600;28;20124;-79
2022/09/28 08:59:42;;;;;;;0.52;0.50;;;;;;;11.24;100.00;99709.56;10386069;28;20065;-79
2022/09/28 09:04:50;;;;;;;0.35;0.35;;;;;;;13.29;100.00;99681.94;10416986;28;20409;-79
2022/09/28 09:10:25;;;;;;;0.65;0.60;;;;;;;13.60;100.00;99677.50;10417424;28;20136;-79
2022/09/28 09:15:52;;;;;;;0.75;0.47;;;;;;;13.43;100.00;99684.53;10400890;28;20041;-79
2022/09/28 09:21:14;;;;;;;0.13;0.13;;;;;;;14.23;100.00;99670.13;10416929;28;20412;-78
2022/09/28 09:26:19;;;;;;;0.63;0.30;;;;;;;14.84;100.00;99658.31;10400857;28;20475;-79
2022/09/28 09:31:48;;;;;;;0.28;0.28;;;;;;;13.06;100.00;99671.72;10416952;28;20496;-78
2022/09/28 09:37:16;;;;;;;0.30;0.30;;;;;;;12.17;100.00;99704.63;10412977;28;20049;-79
2022/09/28 09:43:07;;;;;;;0.30;0.05;;;;;;;13.93;100.00;99680.72;10418225;28;20042;-79
2022/09/28 09:48:37;;;;;;;0.22;0.22;;;;;;;12.94;100.00;99694.16;10399495;28;20056;-79
2022/09/28 09:53:46;;;;;;;0.05;0.05;;;;;;;13.34;100.00;99693.13;10414886;28;20492;-79
2022/09/28 09:58:52;;;;;;;0.00;0.00;;;;;;;14.24;100.00;99679.63;10401598;28;20050;-79
2022/09/28 10:04:24;;;;;;;0.03;0.03;;;;;;;15.30;100.00;99671.59;10401041;28;20045;-78
2022/09/28 10:09:42;;;;;;;0.20;0.20;;;;;;;14.34;100.00;99670.03;10415214;28;20409;-79
2022/09/28 10:15:01;;;;;;;0.00;0.00;;;;;;;14.24;100.00;99675.31;10415779;28;20456;-79
2022/09/28 10:20:12;;;;;;;0.00;0.00;;;;;;;14.22;100.00;99674.47;10399549;28;20193;-79
2022/09/28 10:25:32;;;;;;;0.00;0.00;;;;;;;13.76;100.00;99669.63;10415141;28;20049;-79
2022/09/28 10:30:41;;;;;;;0.63;0.15;;;;;;;14.26;100.00;99672.69;10415425;28;20085;-79
2022/09/28 10:35:46;;;;;;;0.00;0.00;;;;;;;14.02;100.00;99669.44;10413997;28;20041;-79
2022/09/28 10:40:50;;;;;;;0.00;0.00;;;;;;;15.52;100.00;99664.34;10397285;28;20128;-79
2022/09/28 10:46:12;;;;;;;0.03;0.03;;;;;;;16.07;100.00;99674.81;10413658;28;20048;-79
2022/09/28 10:51:38;;;;;;;0.20;0.08;;;;;;;15.94;100.00;99677.59;10400495;28;20480;-79
2022/09/28 10:56:40;;;;;;;0.00;0.00;;;;;;;14.53;100.00;99678.47;10421031;28;20044;-79
2022/09/28 11:02:17;;;;;;;0.00;0.00;;;;;;;16.33;100.00;99671.78;10381197;28;20065;-79
2022/09/28 11:07:23;;;;;;;0.00;0.00;;;;;;;16.73;100.00;99670.19;10414373;28;20045;-79
2022/09/28 11:12:28;;;;;;;0.00;0.00;;;;;;;14.80;100.00;99674.78;10413279;28;20038;-79
2022/09/28 11:17:37;;;;;;;0.00;0.00;;;;;;;14.70;100.00;99681.78;10414027;28;20049;-79
2022/09/28 11:22:41;;;;;;;0.00;0.00;;;;;;;14.53;100.00;99681.94;10413373;28;20050;-79
2022/09/28 11:27:50;;;;;;;0.00;0.00;;;;;;;16.27;100.00;99667.53;10412107;28;20049;-79
2022/09/28 11:33:02;;;;;;;0.00;0.00;;;;;;;15.45;100.00;99666.16;10413039;28;20057;-79
2022/09/28 11:39:03;;;;;;;0.07;0.07;;;;;;;16.12;100.00;99668.63;10409514;28;20081;-79
2022/09/28 11:44:22;;;;;;;0.00;0.00;;;;;;;16.48;100.00;99668.03;10412074;28;20292;-79
2022/09/28 11:49:55;;;;;;;;;;;;;;;15.33;100.00;99663.75;10396326;28;20537;-79
2022/09/28 11:55:04;;;;;;;0.00;0.00;;;;;;;16.56;100.00;99665.31;10406872;28;19921;-79
2022/09/28 12:00:14;;;;;;;0.00;0.00;;;;;;;16.49;100.00;99662.78;10388809;28;20141;-79
2022/09/28 12:05:30;;;;;;;0.00;0.00;;;;;;;16.58;100.00;99661.78;10411198;28;20065;-78
2022/09/28 12:10:40;;;;;;;0.00;0.00;;;;;;;16.50;100.00;99659.31;10420902;28;20540;-79
2022/09/28 12:16:01;;;;;;;0.63;0.22;;;;;;;16.07;100.00;99665.28;10422284;28;20644;-79
2022/09/28 12:21:23;;;;;;;0.00;0.00;;;;;;;15.51;100.00;99668.69;10411972;28;20037;-79
2022/09/28 12:26:47;;;;;;;0.00;0.00;;;;;;;15.40;100.00;99665.38;10411963;28;20047;-79
2022/09/28 12:32:01;;;;;;;0.15;0.10;;;;;;;15.72;100.00;99674.44;10412659;28;20452;-79
2022/09/28 12:37:21;;;;;;;0.08;0.08;;;;;;;15.67;100.00;99660.69;10414340;28;20042;-79
2022/09/28 12:42:35;;;;;;;0.00;0.00;;;;;;;15.17;100.00;99656.16;10415930;28;20489;-79
2022/09/28 12:48:02;;;;;;;0.00;0.00;;;;;;;14.95;100.00;99659.91;10419289;28;20451;-78
2022/09/28 12:53:37;;;;;;;0.55;0.00;;;;;;;16.55;100.00;99655.78;10409959;28;20103;-79
2022/09/28 12:59:07;;;;;;;0.00;0.00;;;;;;;15.52;100.00;99651.38;10406685;28;20045;-79
2022/09/28 13:04:16;;;;;;;0.28;0.28;;;;;;;16.10;100.00;99643.56;10410311;28;20129;-78
2022/09/28 13:09:20;;;;;;;0.08;0.08;;;;;;;16.40;100.00;99652.59;10408774;28;20068;-79
2022/09/28 13:14:43;;;;;;;0.32;0.10;;;;;;;16.11;100.00;99651.38;10407104;28;20052;-78
2022/09/28 13:19:58;;;;;;;0.17;0.08;;;;;;;16.84;100.00;99651.75;10398488;28;20137;-78
2022/09/28 13:25:06;;;;;;;0.00;0.00;;;;;;;16.38;100.00;99649.16;10411008;28;20080;-79
2022/09/28 13:30:13;;;;;;;0.00;0.00;;;;;;;15.50;100.00;99651.41;10410213;28;20092;-79
2022/09/28 13:35:20;;;;;;;0.00;0.00;;;;;;;14.63;100.00;99658.53;10410901;28;20468;-78
2022/09/28 13:41:00;;;;;;;0.00;0.00;;;;;;;15.73;100.00;99655.41;10391970;28;20135;-78
2022/09/28 13:46:09;;;;;;;0.00;0.00;;;;;;;15.09;100.00;99645.03;10417276;28;20057;-78
2022/09/28 13:51:28;;;;;;;0.00;0.00;;;;;;;15.05;100.00;99645.97;10416263;28;20041;-78
2022/09/28 13:56:39;;;;;;;0.00;0.00;;;;;;;15.58;100.00;99646.09;10410522;28;20080;-78
2022/09/28 14:01:57;;;;;;;0.10;0.00;;;;;;;15.21;100.00;99647.47;10433998;28;20049;-79
2022/09/28 14:07:14;;;;;;;0.00;0.00;;;;;;;15.04;100.00;99649.44;10435816;28;20116;-78
2022/09/28 14:12:34;;;;;;;0.10;0.00;;;;;;;15.89;100.00;99640.47;10429415;28;20099;-78
2022/09/28 14:17:53;;;;;;;0.00;0.00;;;;;;;16.02;100.00;99646.31;10429008;28;20412;-78
2022/09/28 14:23:13;;;;;;;0.00;0.00;;;;;;;16.72;100.00;99638.09;10428617;28;20477;-79
2022/09/28 14:28:37;;;;;;;1.85;0.35;;;;;;;15.90;100.00;99636.97;10404892;28;20041;-79
2022/09/28 14:33:41;;;;;;;0.75;0.32;;;;;;;14.93;100.00;99641.78;10405254;28;20038;-77
2022/09/28 14:44:11;;;;;;;0.15;0.00;;;;;;;14.59;100.00;99649.94;10401747;28;20048;-78
2022/09/28 14:49:15;;;;;;;0.10;0.10;;;;;;;14.37;100.00;99662.22;10409024;28;20065;-79
2022/09/28 14:54:20;;;;;;;0.00;0.00;;;;;;;14.08;100.00;99666.78;10408575;28;20513;-78
2022/09/28 14:59:41;;;;;;;0.00;0.00;;;;;;;13.90;100.00;99670.38;10402840;28;20124;-78
2022/09/28 15:05:12;;;;;;;0.00;0.00;;;;;;;14.37;100.00;99693.31;10392156;28;20140;-78
2022/09/28 15:10:32;;;;;;;0.00;0.00;;;;;;;12.98;100.00;99713.97;10404807;28;20092;-78
2022/09/28 15:15:39;;;;;;;0.73;0.10;;;;;;;11.64;100.00;99725.19;10407732;28;20065;-79
2022/09/28 15:20:45;;;;;;;0.00;0.00;;;;;;;9.96;100.00;99773.88;10407295;28;20052;-79
2022/09/28 15:25:51;;;;;;;0.00;0.00;;;;;;;9.38;100.00;99835.78;10407380;28;20045;-84
2022/09/28 15:31:01;;;;;;;3.00;2.05;;;;;;;9.65;100.00;99842.97;10393158;28;20140;-82
2022/09/28 15:36:06;;;;;;;0.28;0.25;;;;;;;9.32;100.00;99852.81;10414365;28;20144;-80
2022/09/28 15:41:09;;;;;;;0.00;0.00;;;;;;;9.26;100.00;99882.75;10420708;28;20132;-81
2022/09/28 15:46:17;;;;;;;0.00;0.00;;;;;;;9.62;100.00;99889.25;10400202;28;20045;-81
2022/09/28 15:51:20;;;;;;;0.05;0.05;;;;;;;9.69;100.00;99909.03;10412682;28;20489;-80
2022/09/28 15:56:23;;;;;;;2.88;2.45;;;;;;;9.75;100.00;99934.00;10390247;28;20061;-80
2022/09/28 16:01:35;;;;;;;1.75;1.05;;;;;;;10.04;100.00;99942.06;10409857;28;20113;-80
2022/09/28 16:06:39;;;;;;;3.03;1.48;;;;;;;10.41;100.00;99941.69;10407449;28;20120;-80
2022/09/28 16:11:41;;;;;;;3.65;2.38;;;;;;;10.69;100.00;99942.81;10406682;28;20088;-79
2022/09/28 16:16:47;;;;;;;3.22;2.55;;;;;;;10.75;100.00;99967.78;10408265;28;20124;-79
2022/09/28 16:21:52;;;;;;;1.63;1.23;;;;;;;10.65;100.00;99984.88;10413377;28;20128;-79
2022/09/28 16:27:05;;;;;;;0.15;0.15;;;;;;;10.56;100.00;99993.38;10410638;28;20411;-79
2022/09/28 16:32:25;;;;;;;0.08;0.08;;;;;;;10.46;100.00;100000.09;10419266;28;20036;-79
2022/09/28 16:37:31;;;;;;;0.27;0.27;;;;;;;10.61;100.00;100011.47;10418998;28;20065;-79
2022/09/28 16:42:32;;;;;;;0.52;0.52;;;;;;;10.41;100.00;100097.03;10421572;28;20113;-80
2022/09/28 16:47:34;;;;;;;10.98;7.55;;;;;;;10.30;100.00;100090.88;10420133;28;20076;-79
2022/09/28 16:58:03;;;;;;;1.83;1.60;;;;;;;10.49;100.00;100092.00;10418800;28;20125;-80
2022/09/28 17:03:17;;;;;;;3.10;1.90;;;;;;;10.46;100.00;100092.81;10393401;28;20081;-79
2022/09/28 17:08:21;;;;;;;1.10;0.90;;;;;;;10.33;100.00;100108.91;10409858;28;20052;-80
2022/09/28 17:13:32;;;;;;;2.38;1.85;;;;;;;10.18;100.00;100116.41;10412024;28;20037;-79
2022/09/28 17:18:37;;;;;;;2.58;1.90;;;;;;;10.22;100.00;100124.22;10410952;28;20045;-80
2022/09/28 17:23:39;;;;;;;2.80;1.42;;;;;;;10.14;100.00;100124.09;10415523;28;20046;-79
2022/09/28 17:28:40;;;;;;;0.63;0.43;;;;;;;9.98;100.00;100111.84;10394926;28;20060;-78
2022/09/28 17:33:42;;;;;;;0.00;0.00;;;;;;;9.83;100.00;100123.63;10418343;28;20045;-79
2022/09/28 17:38:45;;;;;;;0.00;0.00;;;;;;;9.82;100.00;100121.03;10417895;28;20053;-79
2022/09/28 17:43:48;;;;;;;0.13;0.13;;;;;;;9.95;100.00;100134.94;10417866;28;20103;-79
2022/09/28 17:48:49;;;;;;;0.25;0.20;;;;;;;9.91;100.00;100116.00;10413718;28;20053;-79
2022/09/28 17:53:53;;;;;;;0.38;0.22;;;;;;;9.66;100.00;100117.31;10418064;28;20042;-79
2022/09/28 17:58:57;;;;;;;0.43;0.43;;;;;;;9.47;100.00;100135.00;10393782;28;20076;-79
2022/09/28 18:04:00;;;;;;;3.65;1.20;;;;;;;9.45;100.00;100136.69;10456281;28;20095;-79
2022/09/28 18:09:02;;;;;;;0.20;0.20;;;;;;;9.31;100.00;100143.28;10399923;28;20475;-79
2022/09/28 18:14:04;;;;;;;1.45;0.63;;;;;;;9.24;100.00;100138.84;10415372;28;20087;-79
2022/09/28 18:19:11;;;;;;;0.68;0.20;;;;;;;9.32;100.00;100134.72;10420536;28;20121;-79
2022/09/28 18:24:12;;;;;;;1.35;0.32;;;;;;;9.18;100.00;100131.88;10400609;28;20079;-79
2022/09/28 18:29:16;;;;;;;0.25;0.10;;;;;;;9.15;100.00;100137.00;10421645;28;20034;-79
2022/09/28 18:34:17;;;;;;;0.43;0.22;;;;;;;9.12;100.00;100136.91;10418682;28;20046;-79
2022/09/28 18:39:19;;;;;;;0.00;0.00;;;;;;;9.08;100.00;100125.72;10412078;28;20132;-79
2022/09/28 18:44:21;;;;;;;0.25;0.25;;;;;;;8.92;100.00;100121.97;10440872;28;20049;-79
2022/09/28 18:49:24;;;;;;;0.08;0.08;;;;;;;8.65;100.00;100130.84;10418700;28;20064;-79
2022/09/28 18:54:26;;;;;;;0.08;0.08;;;;;;;8.73;100.00;100141.28;10407993;28;20128;-79
2022/09/28 18:59:27;;;;;;;0.30;0.30;;;;;;;8.78;100.00;100152.50;10416597;28;20045;-79
2022/09/28 19:04:29;;;;;;;0.00;0.00;;;;;;;8.82;100.00;100154.31;10427209;28;20072;-79
2022/09/28 19:09:31;;;;;;;0.10;0.10;;;;;;;8.77;100.00;100155.91;10413429;28;20485;-79
2022/09/28 19:14:33;;;;;;;0.75;0.25;;;;;;;8.69;100.00;100162.56;10396779;28;20049;-79
2022/09/28 19:19:35;;;;;;;4.72;0.60;;;;;;;8.69;100.00;100167.72;10435455;28;20055;-79
2022/09/28 19:24:37;;;;;;;0.00;0.00;;;;;;;8.78;100.00;100167.91;10446022;28;20088;-79
2022/09/28 19:29:39;;;;;;;1.95;0.43;;;;;;;8.74;100.00;100168.69;10436222;28;20055;-79
2022/09/28 19:34:40;;;;;;;0.40;0.17;;;;;;;8.62;100.00;100155.56;10430773;28;20073;-79
2022/09/28 19:39:42;;;;;;;0.20;0.17;;;;;;;8.35;100.00;100157.53;10412648;28;20125;-79
2022/09/28 19:44:43;;;;;;;1.05;0.75;;;;;;;8.45;100.00;100171.44;10431832;28;20563;-79
2022/09/28 19:49:45;;;;;;;0.63;0.38;;;;;;;8.29;100.00;100177.94;10425932;28;20076;-80
2022/09/28 19:54:55;;;;;;;0.60;0.20;;;;;;;8.20;100.00;100188.84;10418439;28;20116;-79
2022/09/28 19:59:57;;;;;;;0.82;0.30;;;;;;;8.26;100.00;100199.25;10412534;28;20061;-79
2022/09/28 20:05:06;;;;;;;0.03;0.03;;;;;;;8.16;100.00;100202.41;10376842;28;20074;-79
2022/09/28 20:10:11;;;;;;;0.10;0.10;;;;;;;8.12;100.00;100204.91;10382326;28;20046;-79
2022/09/28 20:15:12;;;;;;;0.10;0.10;;;;;;;8.13;100.00;100207.50;10386838;28;20433;-79
2022/09/28 20:20:14;;;;;;;0.13;0.10;;;;;;;8.02;100.00;100199.53;10384121;28;20508;-79
2022/09/28 20:25:15;;;;;;;0.10;0.10;;;;;;;8.05;100.00;100196.16;10386457;28;20037;-79
2022/09/28 20:30:17;;;;;;;0.17;0.17;;;;;;;8.03;100.00;100200.38;10387000;28;20151;-79
2022/09/28 20:35:19;;;;;;;0.15;0.13;;;;;;;8.04;100.00;100208.09;10385454;28;20038;-79
2022/09/28 20:40:35;;;;;;;0.17;0.10;;;;;;;7.92;100.00;100207.81;10390183;28;20110;-79
2022/09/28 20:45:37;;;;;;;0.10;0.10;;;;;;;7.83;100.00;100211.03;10409424;28;20033;-79
2022/09/28 20:50:40;;;;;;;0.00;0.00;;;;;;;7.71;100.00;100213.25;10411183;28;20484;-79
2022/09/28 20:55:41;;;;;;;0.93;0.40;;;;;;;8.05;100.00;100214.13;10406759;28;20051;-79
2022/09/28 21:00:43;;;;;;;0.15;0.10;;;;;;;7.82;100.00;100196.44;10423560;28;20132;-79
2022/09/28 21:05:45;;;;;;;0.25;0.25;;;;;;;7.55;100.00;100199.16;10414642;28;20073;-79
2022/09/28 21:10:46;;;;;;;0.90;0.40;;;;;;;7.59;100.00;100209.53;10419632;28;20048;-79
2022/09/28 21:15:48;;;;;;;0.10;0.10;;;;;;;7.58;100.00;100197.53;10424502;28;20052;-79
2022/09/28 21:20:50;;;;;;;0.08;0.08;;;;;;;7.58;100.00;100205.22;10422258;28;20053;-79
2022/09/28 21:26:09;;;;;;;0.90;0.50;;;;;;;7.42;100.00;100205.63;10417171;28;20063;-79
2022/09/28 21:31:11;;;;;;;0.10;0.10;;;;;;;7.35;100.00;100203.72;10425745;28;20135;-79
2022/09/28 21:36:13;;;;;;;0.30;0.30;;;;;;;7.19;100.00;100213.53;10418240;28;20116;-79
2022/09/28 21:41:15;;;;;;;0.35;0.28;;;;;;;7.15;100.00;100222.84;10426339;28;20120;-79
2022/09/28 21:46:16;;;;;;;0.50;0.30;;;;;;;7.08;100.00;100230.31;10404662;28;20116;-79
2022/09/28 21:51:18;;;;;;;0.93;0.68;;;;;;;7.09;100.00;100226.94;10431290;28;20140;-79
2022/09/28 21:56:21;;;;;;;0.35;0.35;;;;;;;7.24;100.00;100226.50;10460474;28;20041;-79
2022/09/28 22:01:24;;;;;;;0.80;0.43;;;;;;;7.16;100.00;100231.41;10410414;28;20048;-79
2022/09/28 22:06:27;;;;;;;0.32;0.28;;;;;;;7.14;100.00;100240.72;10393492;28;20057;-79
2022/09/28 22:11:28;;;;;;;0.70;0.45;;;;;;;7.08;100.00;100240.56;10417553;28;20404;-79
2022/09/28 22:16:30;;;;;;;0.40;0.30;;;;;;;6.98;100.00;100245.41;10416924;28;20061;-79
2022/09/28 22:21:33;;;;;;;0.65;0.60;;;;;;;6.92;100.00;100250.34;10413676;28;20416;-80
2022/09/28 22:26:36;;;;;;;54.45;1.25;;;;;;;7.13;100.00;100262.06;10397581;28;20045;-79
2022/09/28 22:31:39;;;;;;;1.95;0.82;;;;;;;7.03;100.00;100237.00;10413525;28;20141;-79
2022/09/28 22:36:41;;;;;;;0.20;0.20;;;;;;;7.04;100.00;100238.72;10414994;28;20046;-79
2022/09/28 22:41:42;;;;;;;0.40;0.40;;;;;;;7.03;100.00;100237.00;10412394;28;20046;-79
2022/09/28 22:46:45;;;;;;;0.05;0.05;;;;;;;7.07;100.00;100243.94;10396582;28;20501;-79
2022/09/28 22:51:47;;;;;;;0.57;0.40;;;;;;;7.10;100.00;100244.91;10397922;28;20057;-79
2022/09/28 22:56:48;;;;;;;0.32;0.30;;;;;;;7.04;100.00;100248.97;10408173;28;20096;-79
2022/09/28 23:01:50;;;;;;;3.97;0.57;;;;;;;7.03;100.00;100257.50;10413645;28;20041;-79
2022/09/28 23:06:51;;;;;;;0.40;0.40;;;;;;;7.02;100.00;100260.88;10410569;28;20424;-79
2022/09/28 23:11:53;;;;;;;1.88;1.00;;;;;;;7.15;100.00;100258.69;10413123;28;20484;-79
2022/09/28 23:16:54;;;;;;;0.28;0.28;;;;;;;6.90;100.00;100257.09;10394410;28;20045;-80
2022/09/28 23:21:58;;;;;;;0.10;0.10;;;;;;;6.82;100.00;100258.56;10412988;28;20116;-80
2022/09/28 23:26:59;;;;;;;1.02;0.70;;;;;;;6.70;100.00;100263.31;10412603;28;20075;-80
2022/09/28 23:32:01;;;;;;;0.75;0.68;;;;;;;6.72;100.00;100277.88;10411038;28;20045;-80
2022/09/28 23:37:02;;;;;;;1.23;0.75;;;;;;;6.70;100.00;100277.00;10408221;28;20049;-80
2022/09/28 23:42:04;;;;;;;0.30;0.30;;;;;;;6.73;100.00;100276.22;10395349;28;20079;-81
2022/09/28 23:47:06;;;;;;;0.80;0.65;;;;;;;6.80;100.00;100275.59;10421312;28;20400;-81
2022/09/28 23:52:07;;;;;;;0.38;0.38;;;;;;;6.86;100.00;100274.88;10420502;28;20087;-81
2022/09/28 23:57:09;;;;;;;0.73;0.60;;;;;;;6.87;100.00;100272.41;10410207;28;20050;-81
